Enchantment of the Seas — C6FZ7 — position and weather

sailwx.info

Track history (hours):
 
Tides and Currents Weather Stations Pressure Air Temp Water Temp Dewpoint Dewpoint Depression Visibility Wind Speed Wind Dir Waves Ship Positions

Enchantment of the Seas (Bahamas)

Last reported at 2019-Nov-20 08:30 UTC. Time now 2019-Nov-20 09:22 UTC.
Position N 28°50' W 093°52'.

Type: Passenger vessel. MMSI: 311733000.

Date/timePositionNaut miles runAvg speedWind from/ knotsBaromVisibWave heightAir tempDewpointWater temp
2019-Nov-20 08:30N 28°50' W 093°52'3718.3
2019-Nov-20 06:30N 28°29' W 093°18'58819.0
2019-Nov-18 23:30N 20°35' W 086°57'6 6.0
2019-Nov-18 22:29N 20°29' W 086°59'0 0.0
2019-Nov-18 21:59N 20°29' W 086°59'0 0.0
2019-Nov-18 21:29N 20°29' W 086°59'0 0.0
2019-Nov-18 20:29N 20°29' W 086°59'0 0.0
2019-Nov-18 19:56N 20°29' W 086°59'0 0.0
2019-Nov-18 19:29N 20°29' W 086°59'0 0.0
2019-Nov-18 15:59N 20°29' W 086°59'0 0.0
2019-Nov-18 15:29N 20°29' W 086°59'0 0.0
2019-Nov-18 12:53N 20°29' W 086°59'1 2.6
2019-Nov-18 12:30N 20°30' W 086°59'  
2019-Nov-16 03:12N 28°32' W 093°24'419.8
2019-Nov-16 03:00N 28°34' W 093°27'8318.4
2019-Nov-15 22:30N 29°21' W 094°45'3 1.2
2019-Nov-15 19:55N 29°19' W 094°48'0 0.0
2019-Nov-15 18:58N 29°19' W 094°48'0 0.0
2019-Nov-15 17:58N 29°19' W 094°48'0 0.0
2019-Nov-15 15:28N 29°19' W 094°48'0 0.0
2019-Nov-15 13:28N 29°19' W 094°48'1 1.0
2019-Nov-15 12:00N 29°19' W 094°47'67718.5
2019-Nov-13 23:30N 20°33' W 086°57'5 2.4
2019-Nov-13 21:29N 20°29' W 086°59'0 0.0
2019-Nov-13 20:29N 20°29' W 086°59'0 0.0
2019-Nov-13 18:29N 20°29' W 086°59'0 0.0
2019-Nov-13 17:59N 20°29' W 086°59'0 0.0
2019-Nov-13 15:56N 20°29' W 086°59'0 0.0
2019-Nov-13 14:26N 20°29' W 086°59'0 0.2
2019-Nov-13 14:00N 20°29' W 086°59'67017.5
2019-Nov-11 23:45N 29°16' W 094°36'11 5.1
2019-Nov-11 21:30N 29°18' W 094°48'0 0.0
2019-Nov-11 20:45N 29°19' W 094°48'0 0.0
2019-Nov-11 18:21N 29°19' W 094°48'0 0.0
2019-Nov-11 17:30N 29°19' W 094°48'0 0.0
2019-Nov-11 16:42N 29°19' W 094°48'0 0.0
2019-Nov-11 16:27N 29°19' W 094°48'0 0.0
2019-Nov-11 15:00N 29°19' W 094°48'0 0.0
2019-Nov-11 12:54N 29°19' W 094°48'4 4.3
2019-Nov-11 12:00N 29°21' W 094°44'  
Track history (hours):
 
Tides and Currents Weather Stations Pressure Air Temp Water Temp Dewpoint Dewpoint Depression Visibility Wind Speed Wind Dir Waves Ship Positions

Enchantment of the Seas (Bahamas)

Last reported at 2019-Nov-20 08:30 UTC. Time now 2019-Nov-20 09:22 UTC.
Position N 28°50' W 093°52'.

Type: Passenger vessel. MMSI: 311733000.

Date/timePositionNaut miles runAvg speedWind from/ knotsBaromVisibWave heightAir tempDewpointWater temp
2019-Nov-20 08:30N 28°50' W 093°52'3718.3
2019-Nov-20 06:30N 28°29' W 093°18'58819.0
2019-Nov-18 23:30N 20°35' W 086°57'6 6.0
2019-Nov-18 22:29N 20°29' W 086°59'0 0.0
2019-Nov-18 21:59N 20°29' W 086°59'0 0.0
2019-Nov-18 21:29N 20°29' W 086°59'0 0.0
2019-Nov-18 20:29N 20°29' W 086°59'0 0.0
2019-Nov-18 19:56N 20°29' W 086°59'0 0.0
2019-Nov-18 19:29N 20°29' W 086°59'0 0.0
2019-Nov-18 15:59N 20°29' W 086°59'0 0.0
2019-Nov-18 15:29N 20°29' W 086°59'0 0.0
2019-Nov-18 12:53N 20°29' W 086°59'1 2.6
2019-Nov-18 12:30N 20°30' W 086°59'  
2019-Nov-16 03:12N 28°32' W 093°24'419.8
2019-Nov-16 03:00N 28°34' W 093°27'8318.4
2019-Nov-15 22:30N 29°21' W 094°45'3 1.2
2019-Nov-15 19:55N 29°19' W 094°48'0 0.0
2019-Nov-15 18:58N 29°19' W 094°48'0 0.0
2019-Nov-15 17:58N 29°19' W 094°48'0 0.0
2019-Nov-15 15:28N 29°19' W 094°48'0 0.0
2019-Nov-15 13:28N 29°19' W 094°48'1 1.0
2019-Nov-15 12:00N 29°19' W 094°47'67718.5
2019-Nov-13 23:30N 20°33' W 086°57'5 2.4
2019-Nov-13 21:29N 20°29' W 086°59'0 0.0
2019-Nov-13 20:29N 20°29' W 086°59'0 0.0
2019-Nov-13 18:29N 20°29' W 086°59'0 0.0
2019-Nov-13 17:59N 20°29' W 086°59'0 0.0
2019-Nov-13 15:56N 20°29' W 086°59'0 0.0
2019-Nov-13 14:26N 20°29' W 086°59'0 0.2
2019-Nov-13 14:00N 20°29' W 086°59'67017.5
2019-Nov-11 23:45N 29°16' W 094°36'11 5.1
2019-Nov-11 21:30N 29°18' W 094°48'0 0.0
2019-Nov-11 20:45N 29°19' W 094°48'0 0.0
2019-Nov-11 18:21N 29°19' W 094°48'0 0.0
2019-Nov-11 17:30N 29°19' W 094°48'0 0.0
2019-Nov-11 16:42N 29°19' W 094°48'0 0.0
2019-Nov-11 16:27N 29°19' W 094°48'0 0.0
2019-Nov-11 15:00N 29°19' W 094°48'0 0.0
2019-Nov-11 12:54N 29°19' W 094°48'4 4.3
2019-Nov-11 12:00N 29°21' W 094°44'  

Dump ship's entire track history